Aviation Digital Data Service (ADDS)

Output produced by METARs form (1753 UTC 25 March 2019)
found at http://www.aviationweather.gov/metar/data/
 
METAR text: GUCY 251700Z 26012KT 9999 SCT015 BKN110 29/23 Q1009 NOSIG
Conditions at: GUCY (CONAKRY/GBESSIA , GN) observed 1700 UTC 25 March 2019
Temperature: 29.0°C (84°F)
Dewpoint: 23.0°C (73°F) [RH = 70%]
Pressure (altimeter): 29.79 inches Hg (1009.0 mb)
Winds: from the W (260 degrees) at 14 MPH (12 knots; 6.2 m/s)
Visibility: 6 or more miles (10+ km)
Ceiling: 11000 feet AGL
Clouds: scattered clouds at 1500 feet AGL
broken clouds at 11000 feet AGL
Weather: no significant weather observed at this time

METAR text: GUCY 251600Z 27010KT 9999 FEW015 BKN110 30/22 Q1009 NOSIG
Conditions at: GUCY (CONAKRY/GBESSIA , GN) observed 1600 UTC 25 March 2019
Temperature: 30.0°C (86°F)
Dewpoint: 22.0°C (72°F) [RH = 62%]
Pressure (altimeter): 29.79 inches Hg (1009.0 mb)
Winds: from the W (270 degrees) at 12 MPH (10 knots; 5.1 m/s)
Visibility: 6 or more miles (10+ km)
Ceiling: 11000 feet AGL
Clouds: few clouds at 1500 feet AGL
broken clouds at 11000 feet AGL
Weather: no significant weather observed at this time

METAR text: GUCY 251500Z 28010KT 9999 FEW015 SCT110 32/22 Q1009 NOSIG
Conditions at: GUCY (CONAKRY/GBESSIA , GN) observed 1500 UTC 25 March 2019
Temperature: 32.0°C (90°F)
Dewpoint: 22.0°C (72°F) [RH = 56%]
Pressure (altimeter): 29.79 inches Hg (1009.0 mb)
Winds: from the W (280 degrees) at 12 MPH (10 knots; 5.1 m/s)
Visibility: 6 or more miles (10+ km)
Ceiling: at least 12,000 feet AGL
Clouds: few clouds at 1500 feet AGL
scattered clouds at 11000 feet AGL
Weather: no significant weather observed at this time

METAR text: GUCY 251300Z 29008KT 5000 HZ SCT015 30/24 Q1011 NOSIG
Conditions at: GUCY (CONAKRY/GBESSIA , GN) observed 1300 UTC 25 March 2019
Temperature: 30.0°C (86°F)
Dewpoint: 24.0°C (75°F) [RH = 70%]
Pressure (altimeter): 29.85 inches Hg (1011.0 mb)
Winds: from the WNW (290 degrees) at 9 MPH (8 knots; 4.1 m/s)
Visibility: 3 miles ( 5 km)
Ceiling: at least 12,000 feet AGL
Clouds: scattered clouds at 1500 feet AGL
Weather: HZ  (haze)

METAR text: GUCY 251100Z 29010KT 5000 HZ SCT015 29/24 Q1013 NOSIG
Conditions at: GUCY (CONAKRY/GBESSIA , GN) observed 1100 UTC 25 March 2019
Temperature: 29.0°C (84°F)
Dewpoint: 24.0°C (75°F) [RH = 74%]
Pressure (altimeter): 29.91 inches Hg (1013.0 mb)
Winds: from the WNW (290 degrees) at 12 MPH (10 knots; 5.1 m/s)
Visibility: 3 miles ( 5 km)
Ceiling: at least 12,000 feet AGL
Clouds: scattered clouds at 1500 feet AGL
Weather: HZ  (haze)

METAR text: GUCY 251000Z 31010KT 5000 HZ SCT015 28/23 Q1012 NOSIG
Conditions at: GUCY (CONAKRY/GBESSIA , GN) observed 1000 UTC 25 March 2019
Temperature: 28.0°C (82°F)
Dewpoint: 23.0°C (73°F) [RH = 74%]
Pressure (altimeter): 29.88 inches Hg (1012.0 mb)
Winds: from the NW (310 degrees) at 12 MPH (10 knots; 5.1 m/s)
Visibility: 3 miles ( 5 km)
Ceiling: at least 12,000 feet AGL
Clouds: scattered clouds at 1500 feet AGL
Weather: HZ  (haze)

METAR text: GUCY 250900Z 31008KT 4000 HZ SCT015 28/23 Q1012 NOSIG
Conditions at: GUCY (CONAKRY/GBESSIA , GN) observed 0900 UTC 25 March 2019
Temperature: 28.0°C (82°F)
Dewpoint: 23.0°C (73°F) [RH = 74%]
Pressure (altimeter): 29.88 inches Hg (1012.0 mb)
Winds: from the NW (310 degrees) at 9 MPH (8 knots; 4.1 m/s)
Visibility: 2.49 miles (4.01 km)
Ceiling: at least 12,000 feet AGL
Clouds: scattered clouds at 1500 feet AGL
Weather: HZ  (haze)

METAR text: GUCY 250800Z 00000KT 3000 BR FEW015 BKN110 26/24 Q1011 NOSIG
Conditions at: GUCY (CONAKRY/GBESSIA , GN) observed 0800 UTC 25 March 2019
Temperature: 26.0°C (79°F)
Dewpoint: 24.0°C (75°F) [RH = 89%]
Pressure (altimeter): 29.85 inches Hg (1011.0 mb)
Winds: calm
Visibility: 1.86 miles (2.99 km)
Ceiling: 11000 feet AGL
Clouds: few clouds at 1500 feet AGL
broken clouds at 11000 feet AGL
Weather: BR  (mist)

METAR text: GUCY 250700Z 00000KT 3000 BR FEW015 BKN110 26/24 Q1011 NOSIG
Conditions at: GUCY (CONAKRY/GBESSIA , GN) observed 0700 UTC 25 March 2019
Temperature: 26.0°C (79°F)
Dewpoint: 24.0°C (75°F) [RH = 89%]
Pressure (altimeter): 29.85 inches Hg (1011.0 mb)
Winds: calm
Visibility: 1.86 miles (2.99 km)
Ceiling: 11000 feet AGL
Clouds: few clouds at 1500 feet AGL
broken clouds at 11000 feet AGL
Weather: BR  (mist)

METAR text: GUCY 250600Z VRB02KT 3000 BR FEW015 SCT110 26/25 Q1011 NOSIG
Conditions at: GUCY (CONAKRY/GBESSIA , GN) observed 0600 UTC 25 March 2019
Temperature: 26.0°C (79°F)
Dewpoint: 25.0°C (77°F) [RH = 94%]
Pressure (altimeter): 29.85 inches Hg (1011.0 mb)
Winds: variable direction winds at 2 MPH (2 knots; 1.0 m/s)
Visibility: 1.86 miles (2.99 km)
Ceiling: at least 12,000 feet AGL
Clouds: few clouds at 1500 feet AGL
scattered clouds at 11000 feet AGL
Weather: BR  (mist)

METAR text: GUCY 250500Z 00000KT 3000 BR FEW015 SCT110 26/26 Q1011 NOSIG
Conditions at: GUCY (CONAKRY/GBESSIA , GN) observed 0500 UTC 25 March 2019
Temperature: 26.0°C (79°F)
Dewpoint: 26.0°C (79°F) [RH = 100%]
Pressure (altimeter): 29.85 inches Hg (1011.0 mb)
Winds: calm
Visibility: 1.86 miles (2.99 km)
Ceiling: at least 12,000 feet AGL
Clouds: few clouds at 1500 feet AGL
scattered clouds at 11000 feet AGL
Weather: BR  (mist)

METAR text: GUCY 250400Z 00000KT 3000 BR FEW015 SCT110 26/26 Q1011 NOSIG
Conditions at: GUCY (CONAKRY/GBESSIA , GN) observed 0400 UTC 25 March 2019
Temperature: 26.0°C (79°F)
Dewpoint: 26.0°C (79°F) [RH = 100%]
Pressure (altimeter): 29.85 inches Hg (1011.0 mb)
Winds: calm
Visibility: 1.86 miles (2.99 km)
Ceiling: at least 12,000 feet AGL
Clouds: few clouds at 1500 feet AGL
scattered clouds at 11000 feet AGL
Weather: BR  (mist)

METAR text: GUCY 250300Z 00000KT 3000 BR FEW015 SCT110 25/25 Q1011 NOSIG
Conditions at: GUCY (CONAKRY/GBESSIA , GN) observed 0300 UTC 25 March 2019
Temperature: 25.0°C (77°F)
Dewpoint: 25.0°C (77°F) [RH = 100%]
Pressure (altimeter): 29.85 inches Hg (1011.0 mb)
Winds: calm
Visibility: 1.86 miles (2.99 km)
Ceiling: at least 12,000 feet AGL
Clouds: few clouds at 1500 feet AGL
scattered clouds at 11000 feet AGL
Weather: BR  (mist)

METAR text: GUCY 250200Z 00000KT 3000 BR FEW015 SCT110 25/25 Q1012 NOSIG
Conditions at: GUCY (CONAKRY/GBESSIA , GN) observed 0200 UTC 25 March 2019
Temperature: 25.0°C (77°F)
Dewpoint: 25.0°C (77°F) [RH = 100%]
Pressure (altimeter): 29.88 inches Hg (1012.0 mb)
Winds: calm
Visibility: 1.86 miles (2.99 km)
Ceiling: at least 12,000 feet AGL
Clouds: few clouds at 1500 feet AGL
scattered clouds at 11000 feet AGL
Weather: BR  (mist)

METAR text: GUCY 250100Z 00000KT 3000 BR FEW015 SCT110 25/25 Q1012 NOSIG
Conditions at: GUCY (CONAKRY/GBESSIA , GN) observed 0100 UTC 25 March 2019
Temperature: 25.0°C (77°F)
Dewpoint: 25.0°C (77°F) [RH = 100%]
Pressure (altimeter): 29.88 inches Hg (1012.0 mb)
Winds: calm
Visibility: 1.86 miles (2.99 km)
Ceiling: at least 12,000 feet AGL
Clouds: few clouds at 1500 feet AGL
scattered clouds at 11000 feet AGL
Weather: BR  (mist)

METAR text: GUCY 250000Z 00000KT 3000 BR FEW015 BKN110 26/24 Q1012 NOSIG
Conditions at: GUCY (CONAKRY/GBESSIA , GN) observed 0000 UTC 25 March 2019
Temperature: 26.0°C (79°F)
Dewpoint: 24.0°C (75°F) [RH = 89%]
Pressure (altimeter): 29.88 inches Hg (1012.0 mb)
Winds: calm
Visibility: 1.86 miles (2.99 km)
Ceiling: 11000 feet AGL
Clouds: few clouds at 1500 feet AGL
broken clouds at 11000 feet AGL
Weather: BR  (mist)

METAR text: GUCY 242300Z 00000KT 3000 BR FEW015 SCT110 26/24 Q1012 NOSIG
Conditions at: GUCY (CONAKRY/GBESSIA , GN) observed 2300 UTC 24 March 2019
Temperature: 26.0°C (79°F)
Dewpoint: 24.0°C (75°F) [RH = 89%]
Pressure (altimeter): 29.88 inches Hg (1012.0 mb)
Winds: calm
Visibility: 1.86 miles (2.99 km)
Ceiling: at least 12,000 feet AGL
Clouds: few clouds at 1500 feet AGL
scattered clouds at 11000 feet AGL
Weather: BR  (mist)

METAR text: GUCY 242200Z 00000KT 3000 BR FEW015 SCT110 26/24 Q1011 NOSIG
Conditions at: GUCY (CONAKRY/GBESSIA , GN) observed 2200 UTC 24 March 2019
Temperature: 26.0°C (79°F)
Dewpoint: 24.0°C (75°F) [RH = 89%]
Pressure (altimeter): 29.85 inches Hg (1011.0 mb)
Winds: calm
Visibility: 1.86 miles (2.99 km)
Ceiling: at least 12,000 feet AGL
Clouds: few clouds at 1500 feet AGL
scattered clouds at 11000 feet AGL
Weather: BR  (mist)

METAR text: GUCY 242100Z 27008KT 3000 BR FEW015 SCT110 26/23 Q1011 NOSIG
Conditions at: GUCY (CONAKRY/GBESSIA , GN) observed 2100 UTC 24 March 2019
Temperature: 26.0°C (79°F)
Dewpoint: 23.0°C (73°F) [RH = 84%]
Pressure (altimeter): 29.85 inches Hg (1011.0 mb)
Winds: from the W (270 degrees) at 9 MPH (8 knots; 4.1 m/s)
Visibility: 1.86 miles (2.99 km)
Ceiling: at least 12,000 feet AGL
Clouds: few clouds at 1500 feet AGL
scattered clouds at 11000 feet AGL
Weather: BR  (mist)

METAR text: GUCY 242000Z 28008KT 9999 FEW015 SCT110 26/23 Q1011 NOSIG
Conditions at: GUCY (CONAKRY/GBESSIA , GN) observed 2000 UTC 24 March 2019
Temperature: 26.0°C (79°F)
Dewpoint: 23.0°C (73°F) [RH = 84%]
Pressure (altimeter): 29.85 inches Hg (1011.0 mb)
Winds: from the W (280 degrees) at 9 MPH (8 knots; 4.1 m/s)
Visibility: 6 or more miles (10+ km)
Ceiling: at least 12,000 feet AGL
Clouds: few clouds at 1500 feet AGL
scattered clouds at 11000 feet AGL
Weather: no significant weather observed at this time

METAR text: GUCY 241900Z 28008KT 9999 FEW015 SCT110 27/23 Q1010 NOSIG
Conditions at: GUCY (CONAKRY/GBESSIA , GN) observed 1900 UTC 24 March 2019
Temperature: 27.0°C (81°F)
Dewpoint: 23.0°C (73°F) [RH = 79%]
Pressure (altimeter): 29.82 inches Hg (1010.0 mb)
Winds: from the W (280 degrees) at 9 MPH (8 knots; 4.1 m/s)
Visibility: 6 or more miles (10+ km)
Ceiling: at least 12,000 feet AGL
Clouds: few clouds at 1500 feet AGL
scattered clouds at 11000 feet AGL
Weather: no significant weather observed at this time

METAR text: GUCY 241800Z 27010KT 9999 FEW015 BKN110 28/23 Q1009 NOSIG
Conditions at: GUCY (CONAKRY/GBESSIA , GN) observed 1800 UTC 24 March 2019
Temperature: 28.0°C (82°F)
Dewpoint: 23.0°C (73°F) [RH = 74%]
Pressure (altimeter): 29.79 inches Hg (1009.0 mb)
Winds: from the W (270 degrees) at 12 MPH (10 knots; 5.1 m/s)
Visibility: 6 or more miles (10+ km)
Ceiling: 11000 feet AGL
Clouds: few clouds at 1500 feet AGL
broken clouds at 11000 feet AGL
Weather: no significant weather observed at this time

METAR text: GUCY 241700Z 27012KT 9999 SCT110 30/23 Q1009 NOSIG
Conditions at: GUCY (CONAKRY/GBESSIA , GN) observed 1700 UTC 24 March 2019
Temperature: 30.0°C (86°F)
Dewpoint: 23.0°C (73°F) [RH = 66%]
Pressure (altimeter): 29.79 inches Hg (1009.0 mb)
Winds: from the W (270 degrees) at 14 MPH (12 knots; 6.2 m/s)
Visibility: 6 or more miles (10+ km)
Ceiling: at least 12,000 feet AGL
Clouds: scattered clouds at 11000 feet AGL
Weather: no significant weather observed at this time

METAR text: GUCY 241600Z 26014KT 9999 SCT110 30/22 Q1009 NOSIG
Conditions at: GUCY (CONAKRY/GBESSIA , GN) observed 1600 UTC 24 March 2019
Temperature: 30.0°C (86°F)
Dewpoint: 22.0°C (72°F) [RH = 62%]
Pressure (altimeter): 29.79 inches Hg (1009.0 mb)
Winds: from the W (260 degrees) at 16 MPH (14 knots; 7.2 m/s)
Visibility: 6 or more miles (10+ km)
Ceiling: at least 12,000 feet AGL
Clouds: scattered clouds at 11000 feet AGL
Weather: no significant weather observed at this time

METAR text: GUCY 241500Z 30012KT 9999 FEW015 31/23 Q1009 NOSIG
Conditions at: GUCY (CONAKRY/GBESSIA , GN) observed 1500 UTC 24 March 2019
Temperature: 31.0°C (88°F)
Dewpoint: 23.0°C (73°F) [RH = 63%]
Pressure (altimeter): 29.79 inches Hg (1009.0 mb)
Winds: from the WNW (300 degrees) at 14 MPH (12 knots; 6.2 m/s)
Visibility: 6 or more miles (10+ km)
Ceiling: at least 12,000 feet AGL
Clouds: few clouds at 1500 feet AGL
Weather: no significant weather observed at this time

METAR text: GUCY 241400Z 26012KT 9999 FEW015 SCT110 31/24 Q1010 NOSIG
Conditions at: GUCY (CONAKRY/GBESSIA , GN) observed 1400 UTC 24 March 2019
Temperature: 31.0°C (88°F)
Dewpoint: 24.0°C (75°F) [RH = 66%]
Pressure (altimeter): 29.82 inches Hg (1010.0 mb)
Winds: from the W (260 degrees) at 14 MPH (12 knots; 6.2 m/s)
Visibility: 6 or more miles (10+ km)
Ceiling: at least 12,000 feet AGL
Clouds: few clouds at 1500 feet AGL
scattered clouds at 11000 feet AGL
Weather: no significant weather observed at this time

METAR text: GUCY 241300Z 25008KT 9999 FEW015 SCT110 32/22 Q1011 NOSIG
Conditions at: GUCY (CONAKRY/GBESSIA , GN) observed 1300 UTC 24 March 2019
Temperature: 32.0°C (90°F)
Dewpoint: 22.0°C (72°F) [RH = 56%]
Pressure (altimeter): 29.85 inches Hg (1011.0 mb)
Winds: from the WSW (250 degrees) at 9 MPH (8 knots; 4.1 m/s)
Visibility: 6 or more miles (10+ km)
Ceiling: at least 12,000 feet AGL
Clouds: few clouds at 1500 feet AGL
scattered clouds at 11000 feet AGL
Weather: no significant weather observed at this time

METAR text: GUCY 241200Z 26008KT 9999 FEW015 SCT110 32/22 Q1012 NOSIG
Conditions at: GUCY (CONAKRY/GBESSIA , GN) observed 1200 UTC 24 March 2019
Temperature: 32.0°C (90°F)
Dewpoint: 22.0°C (72°F) [RH = 56%]
Pressure (altimeter): 29.88 inches Hg (1012.0 mb)
Winds: from the W (260 degrees) at 9 MPH (8 knots; 4.1 m/s)
Visibility: 6 or more miles (10+ km)
Ceiling: at least 12,000 feet AGL
Clouds: few clouds at 1500 feet AGL
scattered clouds at 11000 feet AGL
Weather: no significant weather observed at this time

METAR text: GUCY 241100Z 28008KT 9999 FEW015 SCT110 31/23 Q1012 NOSIG
Conditions at: GUCY (CONAKRY/GBESSIA , GN) observed 1100 UTC 24 March 2019
Temperature: 31.0°C (88°F)
Dewpoint: 23.0°C (73°F) [RH = 63%]
Pressure (altimeter): 29.88 inches Hg (1012.0 mb)
Winds: from the W (280 degrees) at 9 MPH (8 knots; 4.1 m/s)
Visibility: 6 or more miles (10+ km)
Ceiling: at least 12,000 feet AGL
Clouds: few clouds at 1500 feet AGL
scattered clouds at 11000 feet AGL
Weather: no significant weather observed at this time

METAR text: GUCY 241000Z 26006KT 9999 SCT015 SCT110 29/23 Q1012 NOSIG
Conditions at: GUCY (CONAKRY/GBESSIA , GN) observed 1000 UTC 24 March 2019
Temperature: 29.0°C (84°F)
Dewpoint: 23.0°C (73°F) [RH = 70%]
Pressure (altimeter): 29.88 inches Hg (1012.0 mb)
Winds: from the W (260 degrees) at 7 MPH (6 knots; 3.1 m/s)
Visibility: 6 or more miles (10+ km)
Ceiling: at least 12,000 feet AGL
Clouds: scattered clouds at 1500 feet AGL
scattered clouds at 11000 feet AGL
Weather: no significant weather observed at this time

METAR text: GUCY 240900Z 29004KT 9999 FEW015 SCT110 28/22 Q1012 NOSIG
Conditions at: GUCY (CONAKRY/GBESSIA , GN) observed 0900 UTC 24 March 2019
Temperature: 28.0°C (82°F)
Dewpoint: 22.0°C (72°F) [RH = 70%]
Pressure (altimeter): 29.88 inches Hg (1012.0 mb)
Winds: from the WNW (290 degrees) at 5 MPH (4 knots; 2.1 m/s)
Visibility: 6 or more miles (10+ km)
Ceiling: at least 12,000 feet AGL
Clouds: few clouds at 1500 feet AGL
scattered clouds at 11000 feet AGL
Weather: no significant weather observed at this time

METAR text: GUCY 240800Z 32004KT 9999 FEW015 BKN110 27/21 Q1011 NOSIG
Conditions at: GUCY (CONAKRY/GBESSIA , GN) observed 0800 UTC 24 March 2019
Temperature: 27.0°C (81°F)
Dewpoint: 21.0°C (70°F) [RH = 70%]
Pressure (altimeter): 29.85 inches Hg (1011.0 mb)
Winds: from the NW (320 degrees) at 5 MPH (4 knots; 2.1 m/s)
Visibility: 6 or more miles (10+ km)
Ceiling: 11000 feet AGL
Clouds: few clouds at 1500 feet AGL
broken clouds at 11000 feet AGL
Weather: no significant weather observed at this time

METAR text: GUCY 240700Z 00000KT 9999 FEW015 SCT110 26/22 Q1011 NOSIG
Conditions at: GUCY (CONAKRY/GBESSIA , GN) observed 0700 UTC 24 March 2019
Temperature: 26.0°C (79°F)
Dewpoint: 22.0°C (72°F) [RH = 79%]
Pressure (altimeter): 29.85 inches Hg (1011.0 mb)
Winds: calm
Visibility: 6 or more miles (10+ km)
Ceiling: at least 12,000 feet AGL
Clouds: few clouds at 1500 feet AGL
scattered clouds at 11000 feet AGL
Weather: no significant weather observed at this time

METAR text: GUCY 240600Z 00000KT 9999 FEW015 SCT110 26/22 Q1010 NOSIG
Conditions at: GUCY (CONAKRY/GBESSIA , GN) observed 0600 UTC 24 March 2019
Temperature: 26.0°C (79°F)
Dewpoint: 22.0°C (72°F) [RH = 79%]
Pressure (altimeter): 29.82 inches Hg (1010.0 mb)
Winds: calm
Visibility: 6 or more miles (10+ km)
Ceiling: at least 12,000 feet AGL
Clouds: few clouds at 1500 feet AGL
scattered clouds at 11000 feet AGL
Weather: no significant weather observed at this time